sensor_id;sensor_type;location;lat;lon;timestamp;pressure;altitude;pressure_sealevel;temperature;humidity
60465;BME280;46314;52.392;9.758;2024-02-26T00:01:20;99525.94;;;6.37;87.20
60465;BME280;46314;52.392;9.758;2024-02-26T00:03:48;99529.31;;;5.96;89.94
60465;BME280;46314;52.392;9.758;2024-02-26T00:06:15;99532.72;;;5.49;92.06
60465;BME280;46314;52.392;9.758;2024-02-26T00:08:41;99525.34;;;5.64;91.12
60465;BME280;46314;52.392;9.758;2024-02-26T00:11:08;99528.59;;;5.28;93.10
60465;BME280;46314;52.392;9.758;2024-02-26T00:13:35;99537.78;;;5.61;92.74
60465;BME280;46314;52.392;9.758;2024-02-26T00:16:02;99528.25;;;5.10;94.97
60465;BME280;46314;52.392;9.758;2024-02-26T00:18:28;99531.47;;;5.18;95.06
60465;BME280;46314;52.392;9.758;2024-02-26T00:20:56;99519.09;;;5.39;93.95
60465;BME280;46314;52.392;9.758;2024-02-26T00:23:23;99518.00;;;5.16;94.55
60465;BME280;46314;52.392;9.758;2024-02-26T00:25:49;99524.88;;;4.95;95.88
60465;BME280;46314;52.392;9.758;2024-02-26T00:28:16;99520.94;;;5.01;95.45
60465;BME280;46314;52.392;9.758;2024-02-26T00:30:42;99514.34;;;5.02;95.54
60465;BME280;46314;52.392;9.758;2024-02-26T00:33:09;99510.69;;;5.06;95.17
60465;BME280;46314;52.392;9.758;2024-02-26T00:35:35;99513.81;;;4.76;96.77
60465;BME280;46314;52.392;9.758;2024-02-26T00:38:03;99516.78;;;4.79;96.72
60465;BME280;46314;52.392;9.758;2024-02-26T00:40:30;99510.94;;;4.62;98.47
60465;BME280;46314;52.392;9.758;2024-02-26T00:42:56;99514.03;;;4.79;97.10
60465;BME280;46314;52.392;9.758;2024-02-26T00:45:23;99509.97;;;4.47;100.00
60465;BME280;46314;52.392;9.758;2024-02-26T00:47:50;99511.69;;;4.67;97.49
60465;BME280;46314;52.392;9.758;2024-02-26T00:50:17;99513.53;;;4.77;96.99
60465;BME280;46314;52.392;9.758;2024-02-26T00:52:44;99510.81;;;4.72;98.31
60465;BME280;46314;52.392;9.758;2024-02-26T00:55:11;99510.13;;;4.61;97.57
60465;BME280;46314;52.392;9.758;2024-02-26T00:57:38;99512.38;;;4.78;96.50
60465;BME280;46314;52.392;9.758;2024-02-26T01:00:05;99500.78;;;4.33;99.31
60465;BME280;46314;52.392;9.758;2024-02-26T01:02:32;99509.50;;;4.64;97.78
60465;BME280;46314;52.392;9.758;2024-02-26T01:04:58;99508.59;;;4.45;99.26
60465;BME280;46314;52.392;9.758;2024-02-26T01:07:25;99505.97;;;4.34;99.11
60465;BME280;46314;52.392;9.758;2024-02-26T01:09:51;99513.63;;;4.38;100.00
60465;BME280;46314;52.392;9.758;2024-02-26T01:12:19;99513.09;;;4.65;98.53
60465;BME280;46314;52.392;9.758;2024-02-26T01:14:46;99513.72;;;4.57;97.81
60465;BME280;46314;52.392;9.758;2024-02-26T01:17:12;99514.38;;;4.43;98.64
60465;BME280;46314;52.392;9.758;2024-02-26T01:19:38;99513.25;;;4.49;97.89
60465;BME280;46314;52.392;9.758;2024-02-26T01:22:05;99514.31;;;4.24;100.00
60465;BME280;46314;52.392;9.758;2024-02-26T01:24:31;99516.88;;;4.10;100.00
60465;BME280;46314;52.392;9.758;2024-02-26T01:26:58;99513.28;;;4.44;98.10
60465;BME280;46314;52.392;9.758;2024-02-26T01:29:26;99520.56;;;4.59;98.96
60465;BME280;46314;52.392;9.758;2024-02-26T01:31:52;99521.94;;;4.27;100.00
60465;BME280;46314;52.392;9.758;2024-02-26T01:34:18;99526.59;;;4.61;99.07
60465;BME280;46314;52.392;9.758;2024-02-26T01:36:45;99517.44;;;4.42;98.75
60465;BME280;46314;52.392;9.758;2024-02-26T01:39:11;99513.94;;;4.31;99.15
60465;BME280;46314;52.392;9.758;2024-02-26T01:41:38;99510.53;;;4.44;99.13
60465;BME280;46314;52.392;9.758;2024-02-26T01:44:05;99507.94;;;4.29;99.86
60465;BME280;46314;52.392;9.758;2024-02-26T01:46:34;99514.69;;;4.42;99.33
60465;BME280;46314;52.392;9.758;2024-02-26T01:49:02;99507.72;;;4.54;98.24
60465;BME280;46314;52.392;9.758;2024-02-26T01:51:29;99510.03;;;4.42;98.61
60465;BME280;46314;52.392;9.758;2024-02-26T01:53:57;99510.47;;;4.20;100.00
60465;BME280;46314;52.392;9.758;2024-02-26T01:56:24;99518.94;;;4.58;98.86
60465;BME280;46314;52.392;9.758;2024-02-26T01:58:50;99519.94;;;4.38;97.62
60465;BME280;46314;52.392;9.758;2024-02-26T02:01:18;99518.50;;;4.46;98.56
60465;BME280;46314;52.392;9.758;2024-02-26T02:03:49;99524.63;;;4.32;98.93
60465;BME280;46314;52.392;9.758;2024-02-26T02:06:15;99524.00;;;4.46;98.65
60465;BME280;46314;52.392;9.758;2024-02-26T02:08:42;99522.66;;;4.67;96.28
60465;BME280;46314;52.392;9.758;2024-02-26T02:11:09;99520.75;;;4.68;96.24
60465;BME280;46314;52.392;9.758;2024-02-26T02:13:35;99521.56;;;4.68;95.97
60465;BME280;46314;52.392;9.758;2024-02-26T02:16:02;99522.06;;;4.46;98.66
60465;BME280;46314;52.392;9.758;2024-02-26T02:18:29;99519.59;;;4.45;97.82
60465;BME280;46314;52.392;9.758;2024-02-26T02:20:59;99517.19;;;4.67;97.02
60465;BME280;46314;52.392;9.758;2024-02-26T02:23:26;99522.94;;;4.42;97.77
60465;BME280;46314;52.392;9.758;2024-02-26T02:25:53;99526.97;;;4.49;97.83
60465;BME280;46314;52.392;9.758;2024-02-26T02:28:19;99524.09;;;4.65;96.98
60465;BME280;46314;52.392;9.758;2024-02-26T02:30:46;99516.31;;;4.43;97.83
60465;BME280;46314;52.392;9.758;2024-02-26T02:33:13;99522.28;;;4.50;97.81
60465;BME280;46314;52.392;9.758;2024-02-26T02:35:40;99522.63;;;4.43;97.40
60465;BME280;46314;52.392;9.758;2024-02-26T02:38:08;99521.88;;;4.03;100.00
60465;BME280;46314;52.392;9.758;2024-02-26T02:40:34;99525.28;;;4.24;100.00
60465;BME280;46314;52.392;9.758;2024-02-26T02:43:01;99513.66;;;4.62;97.25
60465;BME280;46314;52.392;9.758;2024-02-26T02:45:27;99509.16;;;4.47;97.71
60465;BME280;46314;52.392;9.758;2024-02-26T02:47:54;99520.91;;;4.77;95.47
60465;BME280;46314;52.392;9.758;2024-02-26T02:50:20;99524.59;;;4.67;96.16
60465;BME280;46314;52.392;9.758;2024-02-26T02:52:47;99528.13;;;4.97;95.13
60465;BME280;46314;52.392;9.758;2024-02-26T02:55:15;99519.81;;;4.78;95.12
60465;BME280;46314;52.392;9.758;2024-02-26T02:57:41;99524.59;;;4.67;95.24
60465;BME280;46314;52.392;9.758;2024-02-26T03:00:08;99526.59;;;4.61;96.03
60465;BME280;46314;52.392;9.758;2024-02-26T03:02:35;99530.28;;;4.76;95.23
60465;BME280;46314;52.392;9.758;2024-02-26T03:05:02;99530.91;;;4.67;96.26
60465;BME280;46314;52.392;9.758;2024-02-26T03:07:28;99536.25;;;4.53;95.41
60465;BME280;46314;52.392;9.758;2024-02-26T03:09:56;99536.16;;;4.64;95.10
60465;BME280;46314;52.392;9.758;2024-02-26T03:12:24;99536.25;;;4.83;94.87
60465;BME280;46314;52.392;9.758;2024-02-26T03:14:50;99538.38;;;4.62;94.85
60465;BME280;46314;52.392;9.758;2024-02-26T03:17:17;99538.25;;;4.77;94.61
60465;BME280;46314;52.392;9.758;2024-02-26T03:19:43;99543.50;;;4.73;94.43
60465;BME280;46314;52.392;9.758;2024-02-26T03:22:10;99538.19;;;4.53;95.83
60465;BME280;46314;52.392;9.758;2024-02-26T03:24:36;99539.44;;;4.36;97.23
60465;BME280;46314;52.392;9.758;2024-02-26T03:27:03;99538.13;;;4.29;97.27
60465;BME280;46314;52.392;9.758;2024-02-26T03:29:31;99537.75;;;4.41;97.69
60465;BME280;46314;52.392;9.758;2024-02-26T03:31:57;99531.66;;;4.49;97.02
60465;BME280;46314;52.392;9.758;2024-02-26T03:34:24;99544.56;;;5.02;94.53
60465;BME280;46314;52.392;9.758;2024-02-26T03:36:50;99545.59;;;4.82;93.88
60465;BME280;46314;52.392;9.758;2024-02-26T03:39:17;99546.66;;;4.57;95.71
60465;BME280;46314;52.392;9.758;2024-02-26T03:41:43;99544.13;;;4.65;95.88
60465;BME280;46314;52.392;9.758;2024-02-26T03:44:10;99547.72;;;4.31;97.62
60465;BME280;46314;52.392;9.758;2024-02-26T03:46:38;99541.75;;;4.24;98.40
60465;BME280;46314;52.392;9.758;2024-02-26T03:49:04;99539.78;;;4.30;98.09
60465;BME280;46314;52.392;9.758;2024-02-26T03:51:31;99533.22;;;4.26;98.88
60465;BME280;46314;52.392;9.758;2024-02-26T03:53:57;99540.88;;;4.29;98.30
60465;BME280;46314;52.392;9.758;2024-02-26T03:56:25;99539.09;;;4.43;96.89
60465;BME280;46314;52.392;9.758;2024-02-26T03:58:51;99539.94;;;4.44;97.63
60465;BME280;46314;52.392;9.758;2024-02-26T04:01:18;99538.03;;;4.10;99.60
60465;BME280;46314;52.392;9.758;2024-02-26T04:03:46;99535.97;;;4.55;96.79
60465;BME280;46314;52.392;9.758;2024-02-26T04:06:12;99535.91;;;4.31;97.43
60465;BME280;46314;52.392;9.758;2024-02-26T04:08:39;99541.78;;;4.19;98.71
60465;BME280;46314;52.392;9.758;2024-02-26T04:11:05;99537.72;;;4.46;97.17
60465;BME280;46314;52.392;9.758;2024-02-26T04:13:32;99547.03;;;4.45;97.13
60465;BME280;46314;52.392;9.758;2024-02-26T04:15:58;99547.53;;;4.81;94.90
60465;BME280;46314;52.392;9.758;2024-02-26T04:18:24;99553.00;;;5.54;90.07
60465;BME280;46314;52.392;9.758;2024-02-26T04:20:52;99548.41;;;5.49;89.49
60465;BME280;46314;52.392;9.758;2024-02-26T04:23:19;99556.34;;;4.78;94.00
60465;BME280;46314;52.392;9.758;2024-02-26T04:25:46;99555.88;;;4.71;94.49
60465;BME280;46314;52.392;9.758;2024-02-26T04:28:12;99556.31;;;4.54;96.05
60465;BME280;46314;52.392;9.758;2024-02-26T04:30:39;99559.84;;;4.25;98.54
60465;BME280;46314;52.392;9.758;2024-02-26T04:33:05;99560.31;;;4.32;97.12
60465;BME280;46314;52.392;9.758;2024-02-26T04:35:32;99563.69;;;4.88;94.21
60465;BME280;46314;52.392;9.758;2024-02-26T04:38:00;99566.25;;;4.45;95.44
60465;BME280;46314;52.392;9.758;2024-02-26T04:40:26;99576.78;;;4.32;97.75
60465;BME280;46314;52.392;9.758;2024-02-26T04:42:53;99569.84;;;4.74;95.46
60465;BME280;46314;52.392;9.758;2024-02-26T04:45:20;99567.88;;;4.80;93.61
60465;BME280;46314;52.392;9.758;2024-02-26T04:47:47;99569.16;;;4.59;95.47
60465;BME280;46314;52.392;9.758;2024-02-26T04:50:13;99579.13;;;4.49;95.58
60465;BME280;46314;52.392;9.758;2024-02-26T04:52:40;99589.69;;;4.37;97.39
60465;BME280;46314;52.392;9.758;2024-02-26T04:55:08;99581.75;;;4.30;97.41
60465;BME280;46314;52.392;9.758;2024-02-26T04:57:35;99585.97;;;4.52;95.84
60465;BME280;46314;52.392;9.758;2024-02-26T05:00:01;99586.09;;;4.71;94.69
60465;BME280;46314;52.392;9.758;2024-02-26T05:02:28;99583.63;;;4.69;94.64
60465;BME280;46314;52.392;9.758;2024-02-26T05:04:54;99590.03;;;4.89;92.81
60465;BME280;46314;52.392;9.758;2024-02-26T05:07:20;99602.00;;;4.74;95.42
60465;BME280;46314;52.392;9.758;2024-02-26T05:09:47;99601.00;;;4.89;94.46
60465;BME280;46314;52.392;9.758;2024-02-26T05:12:15;99601.84;;;4.89;93.39
60465;BME280;46314;52.392;9.758;2024-02-26T05:14:41;99607.91;;;4.57;95.02
60465;BME280;46314;52.392;9.758;2024-02-26T05:17:08;99611.31;;;4.73;93.86
60465;BME280;46314;52.392;9.758;2024-02-26T05:19:34;99610.44;;;4.83;93.55
60465;BME280;46314;52.392;9.758;2024-02-26T05:22:00;99618.22;;;4.70;95.85
60465;BME280;46314;52.392;9.758;2024-02-26T05:24:27;99615.78;;;4.69;94.79
60465;BME280;46314;52.392;9.758;2024-02-26T05:26:54;99608.56;;;4.44;96.91
60465;BME280;46314;52.392;9.758;2024-02-26T05:29:21;99617.94;;;4.72;94.94
60465;BME280;46314;52.392;9.758;2024-02-26T05:31:48;99617.94;;;4.38;97.51
60465;BME280;46314;52.392;9.758;2024-02-26T05:34:14;99613.75;;;4.50;98.02
60465;BME280;46314;52.392;9.758;2024-02-26T05:36:41;99616.41;;;4.55;96.95
60465;BME280;46314;52.392;9.758;2024-02-26T05:39:07;99614.97;;;4.68;96.46
60465;BME280;46314;52.392;9.758;2024-02-26T05:41:40;99619.13;;;4.61;96.95
60465;BME280;46314;52.392;9.758;2024-02-26T05:44:06;99620.72;;;4.67;95.93
60465;BME280;46314;52.392;9.758;2024-02-26T05:46:34;99617.63;;;4.44;98.06
60465;BME280;46314;52.392;9.758;2024-02-26T05:49:00;99613.53;;;4.42;97.73
60465;BME280;46314;52.392;9.758;2024-02-26T05:51:27;99620.72;;;4.32;99.01
60465;BME280;46314;52.392;9.758;2024-02-26T05:53:54;99616.78;;;4.49;98.78
60465;BME280;46314;52.392;9.758;2024-02-26T05:56:21;99623.38;;;4.43;98.18
60465;BME280;46314;52.392;9.758;2024-02-26T05:58:47;99622.22;;;4.54;97.24
60465;BME280;46314;52.392;9.758;2024-02-26T06:01:15;99628.25;;;4.85;95.21
60465;BME280;46314;52.392;9.758;2024-02-26T06:03:43;99627.81;;;5.02;93.60
60465;BME280;46314;52.392;9.758;2024-02-26T06:06:10;99640.31;;;4.89;94.79
60465;BME280;46314;52.392;9.758;2024-02-26T06:08:36;99627.69;;;5.18;92.58
60465;BME280;46314;52.392;9.758;2024-02-26T06:11:05;99635.31;;;4.62;96.92
60465;BME280;46314;52.392;9.758;2024-02-26T06:13:31;99639.06;;;5.06;93.68
60465;BME280;46314;52.392;9.758;2024-02-26T06:15:58;99636.81;;;4.84;93.64
60465;BME280;46314;52.392;9.758;2024-02-26T06:18:24;99638.81;;;4.39;97.11
60465;BME280;46314;52.392;9.758;2024-02-26T06:20:52;99642.44;;;4.68;95.64
60465;BME280;46314;52.392;9.758;2024-02-26T06:23:19;99635.00;;;4.69;95.25
60465;BME280;46314;52.392;9.758;2024-02-26T06:25:45;99649.53;;;4.69;95.39
60465;BME280;46314;52.392;9.758;2024-02-26T06:28:12;99648.53;;;4.60;97.23
60465;BME280;46314;52.392;9.758;2024-02-26T06:30:38;99660.31;;;4.61;96.43
60465;BME280;46314;52.392;9.758;2024-02-26T06:33:05;99657.13;;;4.83;95.56
60465;BME280;46314;52.392;9.758;2024-02-26T06:35:31;99652.03;;;4.66;96.16
60465;BME280;46314;52.392;9.758;2024-02-26T06:37:59;99657.97;;;4.49;97.43
60465;BME280;46314;52.392;9.758;2024-02-26T06:40:26;99669.81;;;4.79;95.76
60465;BME280;46314;52.392;9.758;2024-02-26T06:42:52;99667.09;;;5.03;94.72
60465;BME280;46314;52.392;9.758;2024-02-26T06:45:19;99670.88;;;5.12;92.80
60465;BME280;46314;52.392;9.758;2024-02-26T06:47:47;99672.47;;;5.18;93.18
60465;BME280;46314;52.392;9.758;2024-02-26T06:50:14;99679.72;;;5.09;93.12
60465;BME280;46314;52.392;9.758;2024-02-26T06:52:40;99677.72;;;5.15;93.34
60465;BME280;46314;52.392;9.758;2024-02-26T06:55:08;99688.81;;;5.34;92.04
60465;BME280;46314;52.392;9.758;2024-02-26T06:57:35;99688.94;;;5.47;91.61
60465;BME280;46314;52.392;9.758;2024-02-26T07:00:02;99700.38;;;5.60;89.89
60465;BME280;46314;52.392;9.758;2024-02-26T07:02:28;99701.22;;;5.55;90.27
60465;BME280;46314;52.392;9.758;2024-02-26T07:04:54;99712.50;;;5.29;91.85
60465;BME280;46314;52.392;9.758;2024-02-26T07:07:21;99716.06;;;5.30;91.55
60465;BME280;46314;52.392;9.758;2024-02-26T07:09:47;99711.72;;;4.95;94.17
60465;BME280;46314;52.392;9.758;2024-02-26T07:12:15;99715.16;;;5.64;89.67
60465;BME280;46314;52.392;9.758;2024-02-26T07:14:42;99715.06;;;5.74;88.83
60465;BME280;46314;52.392;9.758;2024-02-26T07:17:09;99728.84;;;5.45;90.54
60465;BME280;46314;52.392;9.758;2024-02-26T07:19:35;99723.72;;;5.86;88.86
60465;BME280;46314;52.392;9.758;2024-02-26T07:22:02;99730.31;;;5.85;88.58
60465;BME280;46314;52.392;9.758;2024-02-26T07:24:28;99730.25;;;5.96;88.34
60465;BME280;46314;52.392;9.758;2024-02-26T07:26:55;99725.50;;;5.77;88.60
60465;BME280;46314;52.392;9.758;2024-02-26T07:29:22;99727.63;;;5.56;89.83
60465;BME280;46314;52.392;9.758;2024-02-26T07:31:49;99733.00;;;5.96;88.97
60465;BME280;46314;52.392;9.758;2024-02-26T07:34:15;99727.94;;;5.79;89.24
60465;BME280;46314;52.392;9.758;2024-02-26T07:36:42;99727.06;;;5.83;88.61
60465;BME280;46314;52.392;9.758;2024-02-26T07:39:08;99736.13;;;5.84;88.71
60465;BME280;46314;52.392;9.758;2024-02-26T07:41:35;99726.16;;;5.64;90.26
60465;BME280;46314;52.392;9.758;2024-02-26T07:44:02;99736.84;;;5.95;87.24
60465;BME280;46314;52.392;9.758;2024-02-26T07:46:29;99734.38;;;5.93;87.74
60465;BME280;46314;52.392;9.758;2024-02-26T07:48:56;99736.28;;;6.41;85.43
60465;BME280;46314;52.392;9.758;2024-02-26T07:51:22;99733.44;;;6.27;85.41
60465;BME280;46314;52.392;9.758;2024-02-26T07:53:49;99723.09;;;5.95;87.49
60465;BME280;46314;52.392;9.758;2024-02-26T07:56:16;99728.59;;;6.38;85.22
60465;BME280;46314;52.392;9.758;2024-02-26T07:58:42;99739.03;;;5.98;86.43
60465;BME280;46314;52.392;9.758;2024-02-26T08:01:08;99730.63;;;5.60;87.02
60465;BME280;46314;52.392;9.758;2024-02-26T08:03:38;99735.91;;;6.04;86.41
60465;BME280;46314;52.392;9.758;2024-02-26T08:06:05;99741.81;;;6.60;82.95
60465;BME280;46314;52.392;9.758;2024-02-26T08:08:31;99740.03;;;6.07;85.28
60465;BME280;46314;52.392;9.758;2024-02-26T08:10:58;99736.44;;;5.82;87.96
60465;BME280;46314;52.392;9.758;2024-02-26T08:13:24;99740.56;;;6.09;86.27
60465;BME280;46314;52.392;9.758;2024-02-26T08:15:51;99740.28;;;6.30;84.31
60465;BME280;46314;52.392;9.758;2024-02-26T08:18:17;99737.34;;;5.73;86.46
60465;BME280;46314;52.392;9.758;2024-02-26T08:20:45;99744.03;;;5.91;87.38
60465;BME280;46314;52.392;9.758;2024-02-26T08:23:12;99750.25;;;6.25;84.88
60465;BME280;46314;52.392;9.758;2024-02-26T08:25:38;99742.63;;;6.17;86.34
60465;BME280;46314;52.392;9.758;2024-02-26T08:28:05;99757.50;;;6.59;82.29
60465;BME280;46314;52.392;9.758;2024-02-26T08:30:31;99743.44;;;5.99;84.84
60465;BME280;46314;52.392;9.758;2024-02-26T08:32:58;99743.19;;;6.19;82.99
60465;BME280;46314;52.392;9.758;2024-02-26T08:35:25;99743.41;;;6.23;82.26
60465;BME280;46314;52.392;9.758;2024-02-26T08:37:53;99740.19;;;5.92;83.14
60465;BME280;46314;52.392;9.758;2024-02-26T08:40:19;99735.91;;;6.04;82.12
60465;BME280;46314;52.392;9.758;2024-02-26T08:42:46;99740.03;;;6.07;81.51
60465;BME280;46314;52.392;9.758;2024-02-26T08:45:12;99743.66;;;6.02;82.19
60465;BME280;46314;52.392;9.758;2024-02-26T08:47:39;99747.09;;;6.13;81.50
60465;BME280;46314;52.392;9.758;2024-02-26T08:50:06;99746.03;;;6.33;80.16
60465;BME280;46314;52.392;9.758;2024-02-26T08:52:33;99749.03;;;6.37;79.86
60465;BME280;46314;52.392;9.758;2024-02-26T08:55:00;99744.63;;;6.55;79.19
60465;BME280;46314;52.392;9.758;2024-02-26T08:57:27;99745.00;;;6.48;79.70
60465;BME280;46314;52.392;9.758;2024-02-26T08:59:54;99747.09;;;6.56;78.04
60465;BME280;46314;52.392;9.758;2024-02-26T09:02:20;99755.66;;;6.74;77.54
60465;BME280;46314;52.392;9.758;2024-02-26T09:04:47;99754.59;;;6.89;77.54
60465;BME280;46314;52.392;9.758;2024-02-26T09:07:13;99757.88;;;6.72;78.10
60465;BME280;46314;52.392;9.758;2024-02-26T09:09:40;99765.16;;;7.19;75.74
60465;BME280;46314;52.392;9.758;2024-02-26T09:12:08;99755.81;;;6.82;76.72
60465;BME280;46314;52.392;9.758;2024-02-26T09:14:34;99759.44;;;6.78;76.79
60465;BME280;46314;52.392;9.758;2024-02-26T09:17:01;99758.53;;;7.01;75.60
60465;BME280;46314;52.392;9.758;2024-02-26T09:19:27;99754.44;;;6.42;77.77
60465;BME280;46314;52.392;9.758;2024-02-26T09:21:54;99757.88;;;6.53;77.45
60465;BME280;46314;52.392;9.758;2024-02-26T09:24:21;99759.41;;;6.40;78.29
60465;BME280;46314;52.392;9.758;2024-02-26T09:26:47;99759.59;;;6.68;77.65
60465;BME280;46314;52.392;9.758;2024-02-26T09:29:15;99759.59;;;6.68;78.06
60465;BME280;46314;52.392;9.758;2024-02-26T09:31:42;99764.53;;;6.71;78.24
60465;BME280;46314;52.392;9.758;2024-02-26T09:34:08;99767.78;;;7.11;76.15
60465;BME280;46314;52.392;9.758;2024-02-26T09:36:35;99772.16;;;6.93;76.48
60465;BME280;46314;52.392;9.758;2024-02-26T09:39:01;99770.00;;;7.09;75.98
60465;BME280;46314;52.392;9.758;2024-02-26T09:41:30;99771.38;;;7.44;74.85
60465;BME280;46314;52.392;9.758;2024-02-26T09:43:57;99773.34;;;7.25;75.67
60465;BME280;46314;52.392;9.758;2024-02-26T09:46:26;99778.59;;;6.88;76.64
60465;BME280;46314;52.392;9.758;2024-02-26T09:48:52;99787.81;;;6.78;76.91
60465;BME280;46314;52.392;9.758;2024-02-26T09:51:22;99782.16;;;6.70;77.82
60465;BME280;46314;52.392;9.758;2024-02-26T09:53:51;99793.69;;;7.10;75.63
60465;BME280;46314;52.392;9.758;2024-02-26T09:56:18;99787.88;;;7.30;74.89
60465;BME280;46314;52.392;9.758;2024-02-26T09:58:45;99780.56;;;7.53;74.64
60465;BME280;46314;52.392;9.758;2024-02-26T10:01:14;99797.69;;;7.36;75.10
60465;BME280;46314;52.392;9.758;2024-02-26T10:03:48;99792.22;;;6.98;77.82
60465;BME280;46314;52.392;9.758;2024-02-26T10:06:15;99796.38;;;7.15;77.87
60465;BME280;46314;52.392;9.758;2024-02-26T10:08:43;99801.38;;;7.13;78.53
60465;BME280;46314;52.392;9.758;2024-02-26T10:11:10;99799.34;;;7.37;77.46
60465;BME280;46314;52.392;9.758;2024-02-26T10:13:36;99801.25;;;7.70;75.00
60465;BME280;46314;52.392;9.758;2024-02-26T10:16:03;99807.34;;;7.53;76.31
60465;BME280;46314;52.392;9.758;2024-02-26T10:18:47;99810.91;;;7.86;74.21
60465;BME280;46314;52.392;9.758;2024-02-26T10:21:19;99815.84;;;7.70;75.47
60465;BME280;46314;52.392;9.758;2024-02-26T10:23:46;99819.50;;;7.85;74.23
60465;BME280;46314;52.392;9.758;2024-02-26T10:26:14;99812.47;;;8.06;73.25
60465;BME280;46314;52.392;9.758;2024-02-26T10:28:41;99819.63;;;7.61;75.23
60465;BME280;46314;52.392;9.758;2024-02-26T10:31:08;99825.41;;;7.78;73.97
60465;BME280;46314;52.392;9.758;2024-02-26T10:33:35;99832.09;;;8.05;73.29
60465;BME280;46314;52.392;9.758;2024-02-26T10:36:06;99829.78;;;7.79;74.46
60465;BME280;46314;52.392;9.758;2024-02-26T10:38:34;99838.53;;;7.53;76.00
60465;BME280;46314;52.392;9.758;2024-02-26T10:41:01;99833.47;;;7.74;75.50
60465;BME280;46314;52.392;9.758;2024-02-26T10:43:27;99843.69;;;7.74;75.15
60465;BME280;46314;52.392;9.758;2024-02-26T10:45:55;99836.78;;;7.25;76.17
60465;BME280;46314;52.392;9.758;2024-02-26T10:48:21;99840.84;;;7.93;75.13
60465;BME280;46314;52.392;9.758;2024-02-26T10:50:48;99833.97;;;8.23;72.94
60465;BME280;46314;52.392;9.758;2024-02-26T10:53:17;99831.00;;;8.61;71.46
60465;BME280;46314;52.392;9.758;2024-02-26T10:55:48;99838.66;;;8.37;73.17
60465;BME280;46314;52.392;9.758;2024-02-26T10:58:16;99840.38;;;8.88;70.89
60465;BME280;46314;52.392;9.758;2024-02-26T11:00:43;99843.00;;;8.57;71.23
60465;BME280;46314;52.392;9.758;2024-02-26T11:03:10;99840.06;;;9.26;69.33
60465;BME280;46314;52.392;9.758;2024-02-26T11:05:38;99838.72;;;9.01;69.65
60465;BME280;46314;52.392;9.758;2024-02-26T11:08:06;99842.91;;;8.98;69.67
60465;BME280;46314;52.392;9.758;2024-02-26T11:10:35;99841.75;;;8.49;71.66
60465;BME280;46314;52.392;9.758;2024-02-26T11:13:04;99847.78;;;7.76;75.10
60465;BME280;46314;52.392;9.758;2024-02-26T11:15:32;99839.59;;;8.18;73.67
60465;BME280;46314;52.392;9.758;2024-02-26T11:17:58;99842.16;;;8.42;73.11
60465;BME280;46314;52.392;9.758;2024-02-26T11:20:28;99844.25;;;7.90;75.21
60465;BME280;46314;52.392;9.758;2024-02-26T11:22:54;99838.69;;;7.76;75.71
60465;BME280;46314;52.392;9.758;2024-02-26T11:25:21;99843.00;;;8.43;74.10
60465;BME280;46314;52.392;9.758;2024-02-26T11:27:52;99840.81;;;8.26;74.28
60465;BME280;46314;52.392;9.758;2024-02-26T11:30:21;99839.94;;;8.95;72.08
60465;BME280;46314;52.392;9.758;2024-02-26T11:32:49;99841.94;;;8.11;74.89
60465;BME280;46314;52.392;9.758;2024-02-26T11:35:16;99829.47;;;8.55;73.86
60465;BME280;46314;52.392;9.758;2024-02-26T11:37:51;99832.22;;;8.69;72.08
60465;BME280;46314;52.392;9.758;2024-02-26T11:40:18;99842.25;;;8.09;74.76
60465;BME280;46314;52.392;9.758;2024-02-26T11:42:44;99836.22;;;8.77;72.76
60465;BME280;46314;52.392;9.758;2024-02-26T11:48:13;99828.09;;;8.25;74.95
60465;BME280;46314;52.392;9.758;2024-02-26T11:50:41;99841.25;;;8.61;73.87
60465;BME280;46314;52.392;9.758;2024-02-26T11:53:22;99838.97;;;8.35;74.44
60465;BME280;46314;52.392;9.758;2024-02-26T11:56:21;99829.97;;;8.71;74.13
60465;BME280;46314;52.392;9.758;2024-02-26T11:58:48;99838.34;;;8.80;72.79
60465;BME280;46314;52.392;9.758;2024-02-26T12:01:37;99840.00;;;8.67;73.29
60465;BME280;46314;52.392;9.758;2024-02-26T12:04:06;99841.63;;;8.40;75.65
60465;BME280;46314;52.392;9.758;2024-02-26T12:06:41;99838.84;;;8.96;72.38
60465;BME280;46314;52.392;9.758;2024-02-26T12:09:08;99841.44;;;8.64;73.46
60465;BME280;46314;52.392;9.758;2024-02-26T12:11:37;99842.06;;;8.47;74.73
60465;BME280;46314;52.392;9.758;2024-02-26T12:14:05;99848.44;;;8.48;74.09
60465;BME280;46314;52.392;9.758;2024-02-26T12:16:35;99851.97;;;8.90;72.94
60465;BME280;46314;52.392;9.758;2024-02-26T12:19:04;99854.19;;;8.88;72.54
60465;BME280;46314;52.392;9.758;2024-02-26T12:21:33;99850.88;;;9.14;71.73
60465;BME280;46314;52.392;9.758;2024-02-26T12:24:07;99852.13;;;10.29;65.92
60465;BME280;46314;52.392;9.758;2024-02-26T12:26:36;99862.94;;;9.77;67.75
60465;BME280;46314;52.392;9.758;2024-02-26T12:29:02;99861.00;;;9.18;69.92
60465;BME280;46314;52.392;9.758;2024-02-26T12:31:29;99865.91;;;9.21;69.84
60465;BME280;46314;52.392;9.758;2024-02-26T12:33:55;99869.69;;;8.75;72.10
60465;BME280;46314;52.392;9.758;2024-02-26T12:36:22;99858.50;;;8.94;71.23
60465;BME280;46314;52.392;9.758;2024-02-26T12:38:50;99859.22;;;8.86;71.32
60465;BME280;46314;52.392;9.758;2024-02-26T12:41:17;99856.69;;;8.76;71.59
60465;BME280;46314;52.392;9.758;2024-02-26T12:43:43;99855.25;;;8.92;71.46
60465;BME280;46314;52.392;9.758;2024-02-26T12:46:13;99864.28;;;8.56;71.78
60465;BME280;46314;52.392;9.758;2024-02-26T12:48:42;99858.31;;;8.90;70.11
60465;BME280;46314;52.392;9.758;2024-02-26T12:51:09;99853.59;;;9.27;69.33
60465;BME280;46314;52.392;9.758;2024-02-26T12:53:37;99871.34;;;9.49;68.53
60465;BME280;46314;52.392;9.758;2024-02-26T12:56:06;99862.13;;;9.17;69.84
60465;BME280;46314;52.392;9.758;2024-02-26T12:58:34;99867.56;;;9.22;69.02
60465;BME280;46314;52.392;9.758;2024-02-26T13:01:01;99885.00;;;9.09;70.21
60465;BME280;46314;52.392;9.758;2024-02-26T13:03:28;99887.72;;;8.73;71.71
60465;BME280;46314;52.392;9.758;2024-02-26T13:05:55;99885.66;;;8.92;71.19
60465;BME280;46314;52.392;9.758;2024-02-26T13:08:23;99888.94;;;8.94;70.63
60465;BME280;46314;52.392;9.758;2024-02-26T13:10:50;99884.63;;;8.88;71.15
60465;BME280;46314;52.392;9.758;2024-02-26T13:13:18;99893.97;;;9.28;69.70